Time;durP1;ratioP1;P1;durP2;ratioP2;P2;SDS_P1;SDS_P2;PMS_P1;PMS_P2;Temp;Humidity;BMP_temperature;BMP_pressure;BME280_temperature;BME280_humidity;BME280_pressure;Samples;Min_cycle;Max_cycle;Signal;HPM_P1;HPM_P2
2022/02/26 00:00:59;;;;;;;;;;;;;;;18.65;38.31;102941.00;7281280;19;153136;-55
2022/02/26 00:03:28;;;;;;;;;;;;;;;18.69;38.04;102941.34;7278620;19;153563;-53
2022/02/26 00:06:02;;;;;;;;;;;;;;;18.72;37.89;102938.91;7278059;19;151975;-54
2022/02/26 00:08:29;;;;;;;;;;;;;;;18.77;37.76;102939.00;7274166;19;154299;-54
2022/02/26 00:10:56;;;;;;;;;;;;;;;18.80;38.12;102952.53;7283040;19;153540;-53
2022/02/26 00:13:29;;;;;;;;;;;;;;;18.83;37.64;102951.19;7282036;19;153435;-55
2022/02/26 00:15:56;;;;;;;;;;;;;;;18.85;37.90;102958.22;7277139;19;153654;-54
2022/02/26 00:18:23;;;;;;;;;;;;;;;18.87;37.69;102958.84;7281517;19;152044;-53
2022/02/26 00:20:50;;;;;;;;;;;;;;;18.89;37.90;102948.25;7281041;19;151882;-54
2022/02/26 00:23:17;;;;;;;;;;;;;;;18.91;37.61;102954.44;7278811;19;155951;-53
2022/02/26 00:25:44;;;;;;;;;;;;;;;18.94;37.58;102967.09;7279046;19;152039;-54
2022/02/26 00:28:11;;;;;;;;;;;;;;;19.03;38.09;102962.81;7277629;19;153406;-53
2022/02/26 00:30:41;;;;;;;;;;;;;;;19.01;38.03;102963.06;7276844;19;154811;-54
2022/02/26 00:33:08;;;;;;;;;;;;;;;19.02;38.19;102964.75;7288026;19;151538;-54
2022/02/26 00:35:35;;;;;;;;;;;;;;;19.04;38.15;102979.34;7280398;19;153747;-54
2022/02/26 00:38:02;;;;;;;;;;;;;;;19.03;38.01;102972.03;7286611;19;152532;-54
2022/02/26 00:40:31;;;;;;;;;;;;;;;19.03;38.14;102962.81;7284463;19;152522;-54
2022/02/26 00:42:58;;;;;;;;;;;;;;;19.05;38.46;102963.41;7282906;19;154432;-53
2022/02/26 00:45:25;;;;;;;;;;;;;;;19.05;38.30;102960.59;7281088;19;152477;-54
2022/02/26 00:47:53;;;;;;;;;;;;;;;19.06;38.47;102970.72;7285810;19;153556;-52
2022/02/26 00:50:20;;;;;;;;;;;;;;;19.05;38.60;102963.41;7284124;19;152321;-54
2022/02/26 00:52:47;;;;;;;;;;;;;;;19.05;38.59;102967.06;7292698;19;151714;-54
2022/02/26 00:55:14;;;;;;;;;;;;;;;19.05;38.37;102967.06;7284757;19;152174;-54
2022/02/26 00:57:41;;;;;;;;;;;;;;;19.05;38.53;102967.06;7285889;19;152471;-54
2022/02/26 01:00:09;;;;;;;;;;;;;;;19.05;38.69;102969.84;7286518;19;153964;-54
2022/02/26 01:02:36;;;;;;;;;;;;;;;19.07;38.36;102966.81;7283532;19;153987;-54
2022/02/26 01:05:04;;;;;;;;;;;;;;;19.04;38.65;102961.69;7284259;19;152011;-54
2022/02/26 01:07:31;;;;;;;;;;;;;;;19.05;38.70;102967.06;7284496;19;153494;-53
2022/02/26 01:09:58;;;;;;;;;;;;;;;19.03;38.61;102958.03;7279904;19;153949;-54
2022/02/26 01:12:25;;;;;;;;;;;;;;;19.03;38.46;102957.22;7284029;19;151982;-53
2022/02/26 01:14:54;;;;;;;;;;;;;;;19.03;38.58;102957.22;7290318;19;152993;-53
2022/02/26 01:17:21;;;;;;;;;;;;;;;19.03;38.47;102954.41;7285292;19;152866;-54
2022/02/26 01:19:49;;;;;;;;;;;;;;;19.03;38.59;102960.00;7285519;19;152650;-53
2022/02/26 01:22:16;;;;;;;;;;;;;;;19.05;38.39;102964.25;7275169;19;157197;-53
2022/02/26 01:24:43;;;;;;;;;;;;;;;19.04;38.36;102967.28;7283431;19;151738;-53
2022/02/26 01:27:10;;;;;;;;;;;;;;;19.03;38.61;102965.63;7284836;19;153510;-53
2022/02/26 01:29:37;;;;;;;;;;;;;;;19.02;38.87;102961.97;7282384;19;153929;-54
2022/02/26 01:32:05;;;;;;;;;;;;;;;19.01;38.63;102957.44;7281299;19;151804;-53
2022/02/26 01:34:33;;;;;;;;;;;;;;;19.00;38.81;102955.75;7282762;19;153070;-53
2022/02/26 01:37:02;;;;;;;;;;;;;;;18.98;38.87;102946.75;7290296;19;154539;-53
2022/02/26 01:39:29;;;;;;;;;;;;;;;18.96;38.55;102951.75;7281913;19;152819;-53
2022/02/26 01:41:57;;;;;;;;;;;;;;;18.95;38.87;102952.84;7282293;19;153793;-54
2022/02/26 01:44:24;;;;;;;;;;;;;;;18.93;39.18;102943.84;7283047;19;151648;-53
2022/02/26 01:46:51;;;;;;;;;;;;;;;18.93;39.23;102949.44;7282127;19;153455;-54
2022/02/26 01:49:19;;;;;;;;;;;;;;;18.91;39.14;102943.22;7281496;19;153545;-53
2022/02/26 01:51:46;;;;;;;;;;;;;;;18.89;39.14;102937.03;7283944;19;152229;-54
2022/02/26 01:54:13;;;;;;;;;;;;;;;18.88;39.64;102934.47;7283347;19;153452;-54
2022/02/26 01:56:41;;;;;;;;;;;;;;;18.88;39.69;102938.13;7282669;19;153624;-54
2022/02/26 01:59:08;;;;;;;;;;;;;;;18.84;39.58;102931.34;7287889;19;151984;-56
2022/02/26 02:01:34;;;;;;;;;;;;;;;18.85;39.72;102935.00;7281208;19;154195;-53
2022/02/26 02:04:02;;;;;;;;;;;;;;;18.83;39.70;102929.63;7282777;19;151600;-53
2022/02/26 02:06:29;;;;;;;;;;;;;;;18.82;39.75;102927.06;7283524;19;152693;-54
2022/02/26 02:08:56;;;;;;;;;;;;;;;18.83;39.73;102931.56;7279367;19;152083;-53
2022/02/26 02:11:23;;;;;;;;;;;;;;;18.79;40.19;102922.81;7279700;19;151675;-53
2022/02/26 02:13:50;;;;;;;;;;;;;;;18.81;40.25;102922.56;7283665;19;152906;-53
2022/02/26 02:16:18;;;;;;;;;;;;;;;18.80;39.89;102918.06;7280876;19;154192;-53
2022/02/26 02:18:45;;;;;;;;;;;;;;;18.78;40.20;102921.13;7284284;19;151654;-53
2022/02/26 02:21:13;;;;;;;;;;;;;;;18.75;40.07;102912.38;7289393;19;154406;-54
2022/02/26 02:23:41;;;;;;;;;;;;;;;18.75;40.15;102913.22;7283757;19;152099;-53
2022/02/26 02:26:08;;;;;;;;;;;;;;;18.74;40.44;102922.72;7283274;19;152707;-53
2022/02/26 02:28:38;;;;;;;;;;;;;;;18.73;40.24;102917.34;7282170;19;154564;-55
2022/02/26 02:31:05;;;;;;;;;;;;;;;18.71;40.57;102920.41;7281963;19;152052;-53
2022/02/26 02:33:40;;;;;;;;;;;;;;;18.64;40.12;102914.94;7280145;19;153271;-53
2022/02/26 02:36:07;;;;;;;;;;;;;;;18.64;40.55;102914.94;7280313;19;154435;-54
2022/02/26 02:38:34;;;;;;;;;;;;;;;18.62;40.56;102919.09;7281747;19;152008;-53
2022/02/26 02:41:01;;;;;;;;;;;;;;;18.62;40.36;102910.72;7283307;19;153683;-54
2022/02/26 02:43:31;;;;;;;;;;;;;;;18.60;40.47;102912.88;7286737;19;152101;-54
2022/02/26 02:46:02;;;;;;;;;;;;;;;18.59;40.52;102912.03;7281028;19;151966;-53
2022/02/26 02:48:29;;;;;;;;;;;;;;;18.55;40.27;102910.84;7279995;19;157069;-52
2022/02/26 02:50:57;;;;;;;;;;;;;;;18.52;40.41;102908.50;7278659;19;151850;-52
2022/02/26 02:53:25;;;;;;;;;;;;;;;18.51;40.15;102901.19;7281848;19;153356;-53
2022/02/26 02:55:55;;;;;;;;;;;;;;;18.50;40.59;102907.88;7282453;19;152474;-53
2022/02/26 02:58:24;;;;;;;;;;;;;;;18.49;40.47;102910.94;7282280;19;152067;-54
2022/02/26 03:00:51;;;;;;;;;;;;;;;18.45;40.11;102906.91;7279875;19;153581;-53
2022/02/26 03:03:18;;;;;;;;;;;;;;;18.41;40.34;102895.38;7289614;19;153859;-54
2022/02/26 03:05:46;;;;;;;;;;;;;;;18.38;40.35;102898.69;7281602;19;151834;-53
2022/02/26 03:08:13;;;;;;;;;;;;;;;18.38;40.76;102898.69;7280031;19;155599;-53
2022/02/26 03:10:40;;;;;;;;;;;;;;;18.35;40.58;102892.72;7279176;19;152359;-54
2022/02/26 03:13:07;;;;;;;;;;;;;;;18.34;40.43;102885.41;7279204;19;154089;-53
2022/02/26 03:15:34;;;;;;;;;;;;;;;18.31;40.71;102880.28;7281156;19;153616;-54
2022/02/26 03:18:01;;;;;;;;;;;;;;;18.31;40.57;102880.28;7279956;19;152146;-54
2022/02/26 03:20:29;;;;;;;;;;;;;;;18.29;40.73;102876.91;7280292;19;153426;-53
2022/02/26 03:22:56;;;;;;;;;;;;;;;18.26;40.81;102874.63;7274912;19;154052;-53
2022/02/26 03:25:23;;;;;;;;;;;;;;;18.25;40.80;102870.13;7289231;19;151858;-54
2022/02/26 03:27:52;;;;;;;;;;;;;;;18.24;41.06;102877.66;7281208;19;154573;-53
2022/02/26 03:30:19;;;;;;;;;;;;;;;18.21;40.82;102878.16;7281897;19;151998;-54
2022/02/26 03:32:46;;;;;;;;;;;;;;;18.19;40.71;102880.34;7281197;19;152890;-54
2022/02/26 03:35:13;;;;;;;;;;;;;;;18.19;40.90;102877.53;7279597;19;153482;-52
2022/02/26 03:37:41;;;;;;;;;;;;;;;18.18;40.67;102875.81;7282427;19;151490;-53
2022/02/26 03:40:10;;;;;;;;;;;;;;;18.15;40.90;102871.59;7280462;19;151606;-53
2022/02/26 03:42:38;;;;;;;;;;;;;;;18.14;40.65;102869.88;7280741;19;153343;-54
2022/02/26 03:45:06;;;;;;;;;;;;;;;18.14;41.07;102871.81;7281298;19;152121;-54
2022/02/26 03:47:33;;;;;;;;;;;;;;;18.12;40.97;102865.63;7286187;19;152178;-54
2022/02/26 03:50:00;;;;;;;;;;;;;;;18.12;40.90;102866.50;7281112;19;151885;-54
2022/02/26 03:52:32;;;;;;;;;;;;;;;18.11;40.91;102862.00;7279977;19;153761;-53
2022/02/26 03:55:02;;;;;;;;;;;;;;;18.10;41.09;102868.66;7280372;19;154346;-54
2022/02/26 03:57:30;;;;;;;;;;;;;;;18.08;41.11;102870.84;7281368;19;152160;-53
2022/02/26 03:59:57;;;;;;;;;;;;;;;18.08;41.51;102876.44;7280547;19;151710;-54
2022/02/26 04:02:24;;;;;;;;;;;;;;;18.07;40.97;102869.16;7278154;19;154653;-53
2022/02/26 04:04:51;;;;;;;;;;;;;;;18.05;41.21;102870.50;7280221;19;151580;-53
2022/02/26 04:07:18;;;;;;;;;;;;;;;18.03;41.24;102864.31;7279645;19;153545;-55
2022/02/26 04:09:45;;;;;;;;;;;;;;;18.01;41.13;102870.13;7282776;19;154322;-54
2022/02/26 04:12:12;;;;;;;;;;;;;;;18.05;41.26;102862.97;7275900;19;152888;-54
2022/02/26 04:14:39;;;;;;;;;;;;;;;18.05;41.67;102860.16;7278909;19;154026;-53
2022/02/26 04:17:07;;;;;;;;;;;;;;;18.04;41.50;102868.78;7278417;19;152154;-54
2022/02/26 04:19:34;;;;;;;;;;;;;;;18.02;41.85;102869.06;7280167;19;152689;-53
2022/02/26 04:22:01;;;;;;;;;;;;;;;18.03;41.76;102867.97;7278741;19;154050;-54
2022/02/26 04:24:28;;;;;;;;;;;;;;;18.00;41.46;102865.63;7281478;19;152253;-54
2022/02/26 04:26:55;;;;;;;;;;;;;;;18.00;41.94;102861.97;7281019;19;152847;-54
2022/02/26 04:29:23;;;;;;;;;;;;;;;18.00;41.89;102861.97;7278917;19;154471;-54
2022/02/26 04:31:50;;;;;;;;;;;;;;;17.96;41.63;102867.22;7287493;19;151571;-53
2022/02/26 04:34:17;;;;;;;;;;;;;;;17.96;41.80;102867.22;7275678;19;156272;-54
2022/02/26 04:36:43;;;;;;;;;;;;;;;17.94;41.83;102861.03;7280579;19;151980;-54
2022/02/26 04:39:11;;;;;;;;;;;;;;;17.92;41.84;102868.81;7279432;19;153571;-54
2022/02/26 04:41:38;;;;;;;;;;;;;;;17.92;41.88;102862.38;7278861;19;153507;-54
2022/02/26 04:44:05;;;;;;;;;;;;;;;17.90;41.96;102865.38;7279263;19;152014;-54
2022/02/26 04:46:43;;;;;;;;;;;;;;;17.91;41.85;102861.50;7279392;19;152723;-53
2022/02/26 04:49:25;;;;;;;;;;;;;;;17.89;41.83;102866.50;7277897;19;152984;-54
2022/02/26 04:52:01;;;;;;;;;;;;;;;17.88;42.24;102869.53;7284117;19;151889;-54
2022/02/26 04:54:28;;;;;;;;;;;;;;;17.86;41.89;102864.19;7274963;19;153798;-53
2022/02/26 04:56:57;;;;;;;;;;;;;;;17.86;41.81;102869.78;7276635;19;151569;-53
2022/02/26 04:59:24;;;;;;;;;;;;;;;17.85;42.03;102875.63;7279371;19;153641;-54
2022/02/26 05:01:51;;;;;;;;;;;;;;;17.83;42.26;102861.88;7276753;19;152475;-52
2022/02/26 05:04:18;;;;;;;;;;;;;;;17.82;41.95;102864.91;7280634;19;152045;-52
2022/02/26 05:06:45;;;;;;;;;;;;;;;17.81;42.13;102860.44;7280153;19;153324;-52
2022/02/26 05:09:12;;;;;;;;;;;;;;;17.81;42.15;102857.63;7274072;19;153754;-53
2022/02/26 05:11:39;;;;;;;;;;;;;;;17.82;41.84;102864.91;7277066;19;151959;-53
2022/02/26 05:14:06;;;;;;;;;;;;;;;17.80;41.93;102858.72;7279932;19;152752;-53
2022/02/26 05:16:33;;;;;;;;;;;;;;;17.77;42.01;102862.84;7278849;19;152263;-53
2022/02/26 05:19:03;;;;;;;;;;;;;;;17.76;42.14;102863.97;7277092;19;152888;-52
2022/02/26 05:21:35;;;;;;;;;;;;;;;17.76;42.03;102866.75;7274891;19;153866;-53
2022/02/26 05:24:04;;;;;;;;;;;;;;;17.72;42.40;102871.09;7285268;19;152122;-52
2022/02/26 05:26:32;;;;;;;;;;;;;;;17.70;42.18;102862.97;7285612;19;153816;-53
2022/02/26 05:28:59;;;;;;;;;;;;;;;17.70;41.97;102862.97;7283222;19;154433;-53
2022/02/26 05:31:26;;;;;;;;;;;;;;;17.69;42.15;102857.63;7282824;19;152333;-53
2022/02/26 05:33:53;;;;;;;;;;;;;;;17.67;42.12;102865.41;7284709;19;153596;-53
2022/02/26 05:36:20;;;;;;;;;;;;;;;17.67;42.02;102857.03;7291259;19;154683;-53
2022/02/26 05:38:47;;;;;;;;;;;;;;;17.65;42.24;102862.00;7284345;19;153878;-52
2022/02/26 05:41:14;;;;;;;;;;;;;;;17.65;42.00;102864.78;7283996;19;153375;-53
2022/02/26 05:43:41;;;;;;;;;;;;;;;17.63;42.30;102864.16;7285311;19;151693;-53
2022/02/26 05:46:10;;;;;;;;;;;;;;;17.61;42.40;102861.63;7283812;19;153762;-53
2022/02/26 05:48:37;;;;;;;;;;;;;;;17.60;42.14;102861.88;7284052;19;154518;-53
2022/02/26 05:51:04;;;;;;;;;;;;;;;17.58;42.44;102861.25;7283445;19;152383;-53
2022/02/26 05:53:31;;;;;;;;;;;;;;;17.57;42.20;102862.34;7283220;19;153531;-54
2022/02/26 05:55:59;;;;;;;;;;;;;;;17.56;42.22;102860.63;7281295;19;153630;-53
2022/02/26 05:58:26;;;;;;;;;;;;;;;17.55;41.96;102858.91;7292272;19;151606;-53
2022/02/26 06:00:55;;;;;;;;;;;;;;;17.54;42.18;102852.47;7281462;19;154482;-53
2022/02/26 06:03:22;;;;;;;;;;;;;;;17.53;42.33;102863.91;7284352;19;152108;-53
2022/02/26 06:05:49;;;;;;;;;;;;;;;17.52;42.06;102865.00;7281127;19;153670;-54
2022/02/26 06:08:17;;;;;;;;;;;;;;;17.52;42.10;102865.00;7283861;19;154512;-52
2022/02/26 06:10:44;;;;;;;;;;;;;;;17.49;42.05;102859.91;7283117;19;151844;-53
2022/02/26 06:13:11;;;;;;;;;;;;;;;17.49;42.49;102859.91;7280574;19;153350;-53
2022/02/26 06:15:38;;;;;;;;;;;;;;;17.48;42.24;102859.03;7278970;19;154066;-52
2022/02/26 06:18:05;;;;;;;;;;;;;;;17.50;42.54;102856.00;7285152;19;152686;-53
2022/02/26 06:20:33;;;;;;;;;;;;;;;17.56;42.69;102855.03;7290325;19;152872;-53
2022/02/26 06:23:01;;;;;;;;;;;;;;;17.59;42.80;102852.63;7284016;19;152109;-53
2022/02/26 06:25:28;;;;;;;;;;;;;;;17.63;42.94;102853.00;7283204;19;153240;-53
2022/02/26 06:27:55;;;;;;;;;;;;;;;17.68;42.90;102858.72;7282064;19;154171;-53
2022/02/26 06:30:26;;;;;;;;;;;;;;;17.73;42.89;102850.44;7281436;19;151806;-53
2022/02/26 06:32:53;;;;;;;;;;;;;;;17.76;42.93;102850.81;7282322;19;152729;-53
2022/02/26 06:35:20;;;;;;;;;;;;;;;17.81;43.22;102861.25;7283203;19;153786;-53
2022/02/26 06:37:53;;;;;;;;;;;;;;;17.85;43.14;102854.13;7284406;19;151651;-53
2022/02/26 06:40:20;;;;;;;;;;;;;;;17.91;43.06;102864.31;7280389;19;152060;-53
2022/02/26 06:42:47;;;;;;;;;;;;;;;17.96;42.87;102853.25;7288287;19;154808;-53
2022/02/26 06:45:14;;;;;;;;;;;;;;;18.03;43.11;102856.78;7281836;19;152993;-52
2022/02/26 06:47:42;;;;;;;;;;;;;;;18.08;43.30;102862.47;7281586;19;153689;-54
2022/02/26 06:50:12;;;;;;;;;;;;;;;18.14;43.35;102869.03;7281916;19;152170;-53
2022/02/26 06:52:39;;;;;;;;;;;;;;;18.20;43.18;102868.91;7283377;19;154400;-53
2022/02/26 06:55:12;;;;;;;;;;;;;;;18.26;43.56;102867.03;7279850;19;154528;-54
2022/02/26 06:57:45;;;;;;;;;;;;;;;18.32;43.33;102870.81;7283641;19;151536;-53
2022/02/26 07:00:20;;;;;;;;;;;;;;;18.38;43.15;102867.91;7283075;19;153196;-53
2022/02/26 07:02:47;;;;;;;;;;;;;;;18.45;42.87;102871.38;7287422;19;153496;-53
2022/02/26 07:05:15;;;;;;;;;;;;;;;18.51;42.82;102877.94;7280188;19;151904;-53
2022/02/26 07:07:43;;;;;;;;;;;;;;;18.57;42.67;102877.00;7281283;19;154205;-52
2022/02/26 07:10:18;;;;;;;;;;;;;;;18.62;42.48;102885.50;7282459;19;152058;-52
2022/02/26 07:12:45;;;;;;;;;;;;;;;18.69;42.40;102877.81;7282296;19;153188;-53
2022/02/26 07:15:12;;;;;;;;;;;;;;;18.75;42.63;102890.81;7276915;19;154936;-53
2022/02/26 07:17:39;;;;;;;;;;;;;;;18.81;42.50;102883.34;7281530;19;152001;-53
2022/02/26 07:20:08;;;;;;;;;;;;;;;18.86;42.28;102877.84;7280041;19;152657;-54
2022/02/26 07:22:35;;;;;;;;;;;;;;;18.92;42.64;102888.06;7281271;19;152873;-53
2022/02/26 07:25:02;;;;;;;;;;;;;;;18.96;42.44;102895.72;7288856;19;151557;-53
2022/02/26 07:27:29;;;;;;;;;;;;;;;19.02;42.01;102886.31;7281130;19;153883;-52
2022/02/26 07:29:56;;;;;;;;;;;;;;;19.08;42.20;102898.44;7282574;19;152262;-53
2022/02/26 07:32:23;;;;;;;;;;;;;;;19.13;42.03;102892.94;7281262;19;156107;-54
2022/02/26 07:34:50;;;;;;;;;;;;;;;19.17;42.24;102894.13;7277751;19;154496;-54
2022/02/26 07:37:17;;;;;;;;;;;;;;;19.23;42.05;102901.53;7282340;19;151934;-54
2022/02/26 07:39:45;;;;;;;;;;;;;;;19.28;41.74;102895.19;7281319;19;152340;-53
2022/02/26 07:42:12;;;;;;;;;;;;;;;19.34;41.61;102897.84;7279738;19;153334;-53
2022/02/26 07:44:39;;;;;;;;;;;;;;;19.38;41.88;102903.78;7280026;19;151767;-53
2022/02/26 07:47:07;;;;;;;;;;;;;;;19.44;41.71;102902.81;7288379;19;152841;-52
2022/02/26 07:49:34;;;;;;;;;;;;;;;19.49;41.76;102905.69;7279307;19;152005;-53
2022/02/26 07:52:02;;;;;;;;;;;;;;;19.53;41.65;102898.50;7280954;19;153474;-53
2022/02/26 07:54:29;;;;;;;;;;;;;;;19.58;41.65;102894.91;7279820;19;153858;-53
2022/02/26 07:56:56;;;;;;;;;;;;;;;19.62;41.44;102893.31;7280498;19;151769;-53
2022/02/26 07:59:23;;;;;;;;;;;;;;;19.67;41.51;102902.63;7279637;19;152848;-53
2022/02/26 08:01:51;;;;;;;;;;;;;;;19.72;41.40;102910.28;7279259;19;154094;-53
2022/02/26 08:04:18;;;;;;;;;;;;;;;19.76;41.60;102909.50;7279482;19;152130;-53
2022/02/26 08:06:45;;;;;;;;;;;;;;;19.81;41.41;102908.75;7280201;19;152855;-52
2022/02/26 08:09:12;;;;;;;;;;;;;;;19.85;41.70;102907.16;7287242;19;153688;-53
2022/02/26 08:11:40;;;;;;;;;;;;;;;19.89;41.22;102906.38;7281956;19;153496;-53
2022/02/26 08:14:07;;;;;;;;;;;;;;;19.93;41.55;102913.19;7279387;19;153467;-54
2022/02/26 08:16:34;;;;;;;;;;;;;;;19.98;41.40;102909.59;7275563;19;152650;-53
2022/02/26 08:19:01;;;;;;;;;;;;;;;20.02;41.60;102912.75;7278044;19;152990;-52
2022/02/26 08:21:31;;;;;;;;;;;;;;;20.06;41.55;102919.53;7278968;19;154076;-53
2022/02/26 08:23:58;;;;;;;;;;;;;;;20.10;41.71;102913.16;7279578;19;152094;-53
2022/02/26 08:26:24;;;;;;;;;;;;;;;20.12;41.85;102921.31;7279061;19;153359;-53
2022/02/26 08:28:52;;;;;;;;;;;;;;;20.15;41.91;102920.78;7279723;19;153360;-53
2022/02/26 08:31:19;;;;;;;;;;;;;;;20.18;41.89;102925.88;7288120;19;151940;-52
2022/02/26 08:33:46;;;;;;;;;;;;;;;20.20;41.86;102934.91;7278917;19;154802;-53
2022/02/26 08:36:12;;;;;;;;;;;;;;;20.21;41.37;102922.56;7279730;19;151983;-53
2022/02/26 08:38:39;;;;;;;;;;;;;;;20.22;41.39;102927.91;7279294;19;153370;-52
2022/02/26 08:41:06;;;;;;;;;;;;;;;20.24;41.38;102920.09;7279705;19;153459;-53
2022/02/26 08:43:33;;;;;;;;;;;;;;;20.25;41.34;102929.38;7279221;19;152232;-53
2022/02/26 08:46:02;;;;;;;;;;;;;;;20.26;41.76;102922.66;7279735;19;153568;-53
2022/02/26 08:48:28;;;;;;;;;;;;;;;20.27;41.74;102918.72;7278506;19;154132;-53
2022/02/26 08:50:55;;;;;;;;;;;;;;;20.28;41.36;102923.22;7277858;19;152050;-53
2022/02/26 08:53:22;;;;;;;;;;;;;;;20.26;41.34;102925.47;7285968;19;153430;-54
2022/02/26 08:55:49;;;;;;;;;;;;;;;20.26;41.13;102915.06;7275094;19;152118;-54
2022/02/26 08:58:16;;;;;;;;;;;;;;;20.26;41.72;102917.03;7286054;19;152282;-53
2022/02/26 09:00:44;;;;;;;;;;;;;;;20.26;41.21;102925.47;7283785;19;153449;-53
2022/02/26 09:03:11;;;;;;;;;;;;;;;20.26;41.42;102917.03;7285568;19;151733;-53
2022/02/26 09:05:39;;;;;;;;;;;;;;;20.25;41.36;102909.72;7285401;19;152860;-53
2022/02/26 09:08:08;;;;;;;;;;;;;;;20.24;41.07;102910.81;7285561;19;153418;-53
2022/02/26 09:10:35;;;;;;;;;;;;;;;20.24;41.04;102919.25;7286170;19;151813;-53
2022/02/26 09:13:02;;;;;;;;;;;;;;;20.24;41.21;102908.00;7290988;19;153185;-54
2022/02/26 09:15:29;;;;;;;;;;;;;;;20.21;40.95;102906.59;7281432;19;152449;-54
2022/02/26 09:17:56;;;;;;;;;;;;;;;20.21;40.99;102915.00;7280563;19;153534;-53
2022/02/26 09:20:23;;;;;;;;;;;;;;;20.22;41.03;102911.06;7282697;19;153415;-52
2022/02/26 09:22:50;;;;;;;;;;;;;;;20.21;40.86;102914.16;7283287;19;151999;-53
2022/02/26 09:25:17;;;;;;;;;;;;;;;20.21;40.61;102911.34;7285218;19;152866;-53
2022/02/26 09:27:51;;;;;;;;;;;;;;;20.21;41.03;102922.56;7284543;19;153522;-52
2022/02/26 09:30:20;;;;;;;;;;;;;;;20.18;40.83;102909.91;7285907;19;152158;-53
2022/02/26 09:32:47;;;;;;;;;;;;;;;20.19;40.74;102917.22;7280840;19;152740;-53
2022/02/26 09:35:15;;;;;;;;;;;;;;;20.17;40.82;102911.00;7290367;19;155570;-53
2022/02/26 09:37:45;;;;;;;;;;;;;;;20.17;40.59;102907.38;7284242;19;153769;-54
2022/02/26 09:40:22;;;;;;;;;;;;;;;20.14;40.98;102910.66;7284109;19;153160;-53
2022/02/26 09:42:49;;;;;;;;;;;;;;;20.13;40.71;102908.97;7283709;19;152244;-53
2022/02/26 09:45:17;;;;;;;;;;;;;;;20.12;41.08;102913.75;7285508;19;153508;-53
2022/02/26 09:47:46;;;;;;;;;;;;;;;20.11;40.70;102914.84;7283018;19;153643;-53
2022/02/26 09:50:18;;;;;;;;;;;;;;;20.08;41.32;102912.53;7284328;19;152006;-54
2022/02/26 09:52:47;;;;;;;;;;;;;;;20.07;41.12;102904.41;7282505;19;152514;-53
2022/02/26 09:55:14;;;;;;;;;;;;;;;20.05;41.39;102906.59;7282100;19;154339;-53
2022/02/26 09:57:43;;;;;;;;;;;;;;;20.03;41.12;102900.41;7291051;19;151805;-53
2022/02/26 10:00:17;;;;;;;;;;;;;;;20.02;41.21;102904.31;7283332;19;152477;-53
2022/02/26 10:02:47;;;;;;;;;;;;;;;19.99;41.76;102891.63;7283965;19;152209;-54
2022/02/26 10:05:14;;;;;;;;;;;;;;;19.98;41.20;102892.78;7283583;19;152708;-53
2022/02/26 10:07:44;;;;;;;;;;;;;;;19.97;41.06;102894.72;7281028;19;154210;-54
2022/02/26 10:10:21;;;;;;;;;;;;;;;19.96;41.29;102893.00;7283297;19;151994;-53
2022/02/26 10:12:59;;;;;;;;;;;;;;;19.97;41.28;102891.91;7282120;19;152449;-53
2022/02/26 10:15:30;;;;;;;;;;;;;;;20.00;41.23;102893.34;7280755;19;153372;-53
2022/02/26 10:18:00;;;;;;;;;;;;;;;20.02;41.50;102893.09;7276957;19;152013;-53
2022/02/26 10:20:29;;;;;;;;;;;;;;;20.03;41.25;102877.97;7288876;19;152840;-53
2022/02/26 10:22:57;;;;;;;;;;;;;;;20.05;41.20;102884.16;7282549;19;151713;-53
2022/02/26 10:25:27;;;;;;;;;;;;;;;20.08;41.48;102878.88;7281907;19;153578;-54
2022/02/26 10:27:57;;;;;;;;;;;;;;;20.12;41.12;102882.03;7282355;19;154321;-61
2022/02/26 10:30:28;;;;;;;;;;;;;;;20.14;41.07;102877.84;7279423;19;151893;-54
2022/02/26 10:33:14;;;;;;;;;;;;;;;20.18;40.94;102875.34;7283215;19;153589;-53
2022/02/26 10:35:41;;;;;;;;;;;;;;;20.22;41.33;102870.91;7279727;19;153407;-54
2022/02/26 10:38:20;;;;;;;;;;;;;;;20.25;41.12;102865.66;7283675;19;151888;-53
2022/02/26 10:41:06;;;;;;;;;;;;;;;20.30;40.72;102873.34;7281842;19;153688;-54
2022/02/26 10:43:39;;;;;;;;;;;;;;;20.34;40.47;102866.09;7289761;19;153724;-53
2022/02/26 10:46:21;;;;;;;;;;;;;;;20.37;40.70;102863.59;7281227;19;153597;-53
2022/02/26 10:48:50;;;;;;;;;;;;;;;20.41;40.76;102856.34;7279812;19;153199;-54
2022/02/26 10:51:18;;;;;;;;;;;;;;;20.46;40.32;102864.00;7276374;19;152205;-53
2022/02/26 10:53:45;;;;;;;;;;;;;;;20.50;40.24;102851.13;7282323;19;153486;-53
2022/02/26 10:56:13;;;;;;;;;;;;;;;20.53;40.29;102858.19;7281337;19;154268;-54
2022/02/26 10:58:42;;;;;;;;;;;;;;;20.57;40.34;102851.78;7280656;19;152441;-53
2022/02/26 11:01:12;;;;;;;;;;;;;;;20.61;39.97;102841.72;7282675;19;152782;-52
2022/02/26 11:03:42;;;;;;;;;;;;;;;20.64;39.78;102835.56;7280756;19;153729;-53
2022/02/26 11:06:11;;;;;;;;;;;;;;;20.68;39.44;102836.75;7288571;19;152636;-53
2022/02/26 11:08:40;;;;;;;;;;;;;;;20.72;39.57;102835.09;7276706;19;153202;-53
2022/02/26 11:11:08;;;;;;;;;;;;;;;20.74;39.49;102816.03;7282597;19;151982;-53
2022/02/26 11:13:36;;;;;;;;;;;;;;;20.79;39.03;102837.72;7281387;19;153556;-53
2022/02/26 11:16:04;;;;;;;;;;;;;;;20.82;38.77;102815.53;7277833;19;153609;-53
2022/02/26 11:18:39;;;;;;;;;;;;;;;20.86;39.06;102813.91;7270932;19;152206;-53
2022/02/26 11:21:08;;;;;;;;;;;;;;;20.90;38.75;102827.41;7274778;19;154157;-53
2022/02/26 11:23:40;;;;;;;;;;;;;;;20.95;38.85;102821.84;7277795;19;153514;-53
2022/02/26 11:26:08;;;;;;;;;;;;;;;20.98;38.65;102819.38;7285156;19;152024;-53
2022/02/26 11:28:36;;;;;;;;;;;;;;;21.02;38.85;102814.06;7278125;19;154211;-52
2022/02/26 11:31:08;;;;;;;;;;;;;;;21.05;38.53;102807.91;7279261;19;152345;-54
2022/02/26 11:33:36;;;;;;;;;;;;;;;21.09;38.87;102801.47;7279371;19;153347;-53
2022/02/26 11:36:04;;;;;;;;;;;;;;;21.13;38.54;102799.00;7274477;19;153548;-53
2022/02/26 11:38:35;;;;;;;;;;;;;;;20.94;32.69;102792.88;7277493;19;152070;-54
2022/02/26 11:41:24;;;;;;;;;;;;;;;20.77;32.17;102798.63;7275831;19;155871;-53
2022/02/26 11:43:53;;;;;;;;;;;;;;;20.96;33.61;102792.63;7275928;19;153572;-53
2022/02/26 11:46:27;;;;;;;;;;;;;;;21.03;34.31;102785.66;7278531;19;151814;-53
2022/02/26 11:48:55;;;;;;;;;;;;;;;21.07;34.78;102791.63;7282897;19;153987;-52
2022/02/26 11:51:35;;;;;;;;;;;;;;;21.14;34.69;102795.94;7275596;19;152092;-53
2022/02/26 11:54:12;;;;;;;;;;;;;;;21.23;34.55;102790.66;7278916;19;153721;-53
2022/02/26 11:56:41;;;;;;;;;;;;;;;21.26;34.69;102788.16;7271337;19;154204;-53
2022/02/26 11:59:08;;;;;;;;;;;;;;;21.35;34.06;102787.69;7278083;19;152051;-53
2022/02/26 12:01:35;;;;;;;;;;;;;;;21.34;34.41;102784.03;7277219;19;153299;-54
2022/02/26 12:04:02;;;;;;;;;;;;;;;21.36;34.85;102783.72;7276733;19;153806;-52
2022/02/26 12:06:30;;;;;;;;;;;;;;;21.36;34.79;102780.91;7277978;19;152168;-53
2022/02/26 12:09:08;;;;;;;;;;;;;;;21.39;35.09;102786.88;7271935;19;153054;-53
2022/02/26 12:11:40;;;;;;;;;;;;;;;21.43;35.07;102773.97;7286051;19;152443;-53
2022/02/26 12:14:09;;;;;;;;;;;;;;;21.48;34.85;102782.44;7281320;19;154121;-52
2022/02/26 12:16:41;;;;;;;;;;;;;;;21.50;34.92;102774.56;7274858;19;153666;-52
2022/02/26 12:19:14;;;;;;;;;;;;;;;21.56;35.31;102779.13;7275421;19;152419;-53
2022/02/26 12:21:45;;;;;;;;;;;;;;;21.61;35.17;102770.72;7277521;19;153622;-53
2022/02/26 12:24:16;;;;;;;;;;;;;;;21.65;35.10;102777.50;7280296;19;154498;-53
2022/02/26 12:26:48;;;;;;;;;;;;;;;21.69;35.10;102763.72;7281535;19;152205;-53
2022/02/26 12:29:22;;;;;;;;;;;;;;;21.73;35.26;102762.91;7280757;19;153777;-53
2022/02/26 12:32:00;;;;;;;;;;;;;;;21.78;34.76;102761.22;7283167;19;154439;-53
2022/02/26 12:34:31;;;;;;;;;;;;;;;21.80;34.85;102761.81;7302037;19;151939;-52